Time;durP1;ratioP1;P1;durP2;ratioP2;P2;SDS_P1;SDS_P2;PMS_P1;PMS_P2;Temp;Humidity;BMP_temperature;BMP_pressure;BME280_temperature;BME280_humidity;BME280_pressure;Samples;Min_cycle;Max_cycle;Signal;HPM_P1;HPM_P2
2021/04/12 00:02:00;;;;;;;4.60;1.20;;;23.20;45.80;;;;;;5086446;28;20447;-79
2021/04/12 00:04:30;;;;;;;2.67;1.00;;;22.60;47.50;;;;;;5089481;28;20399;-80
2021/04/12 00:07:22;;;;;;;3.95;1.10;;;22.90;52.70;;;;;;5091022;28;20389;-80
2021/04/12 00:09:58;;;;;;;5.10;1.17;;;22.80;43.50;;;;;;5089045;28;20774;-81
2021/04/12 00:12:36;;;;;;;5.00;1.23;;;22.40;46.60;;;;;;5078802;28;20407;-80
2021/04/12 00:15:26;;;;;;;3.70;1.20;;;22.00;46.30;;;;;;5090437;28;20388;-80
2021/04/12 00:17:58;;;;;;;3.88;1.13;;;21.70;46.60;;;;;;5085517;28;20422;-79
2021/04/12 00:20:52;;;;;;;3.10;1.00;;;21.30;49.90;;;;;;5090539;28;20447;-79
2021/04/12 00:23:45;;;;;;;2.53;1.08;;;21.80;48.40;;;;;;5080231;28;20382;-80
2021/04/12 00:26:29;;;;;;;3.72;0.90;;;21.90;48.00;;;;;;5090629;28;20403;-80
2021/04/12 00:29:21;;;;;;;3.37;1.20;;;21.30;49.00;;;;;;5089900;28;20384;-80
2021/04/12 00:31:54;;;;;;;7.97;1.30;;;21.30;49.50;;;;;;5080685;28;20388;-79
2021/04/12 00:34:52;;;;;;;3.83;1.30;;;21.60;50.00;;;;;;5089210;28;20376;-80
2021/04/12 00:37:38;;;;;;;4.43;1.02;;;21.30;48.70;;;;;;5082729;28;20398;-80
2021/04/12 00:40:40;;;;;;;3.08;1.10;;;21.50;50.90;;;;;;5089054;28;20369;-79
2021/04/12 00:43:25;;;;;;;4.87;1.00;;;21.70;50.60;;;;;;5064672;28;20472;-80
2021/04/12 00:46:24;;;;;;;6.67;1.40;;;21.90;47.10;;;;;;5071920;28;20378;-80
2021/04/12 00:48:51;;;;;;;6.07;1.40;;;21.40;48.00;;;;;;5080480;28;20457;-79
2021/04/12 00:51:31;;;;;;;4.20;1.20;;;21.50;51.60;;;;;;5088041;28;20499;-79
2021/04/12 00:54:16;;;;;;;4.97;1.27;;;21.80;50.30;;;;;;5076255;28;20430;-81
2021/04/12 00:57:07;;;;;;;6.60;1.40;;;21.60;48.10;;;;;;5088680;28;20373;-79
2021/04/12 00:59:54;;;;;;;4.53;1.30;;;20.90;51.20;;;;;;5089293;28;20386;-78
2021/04/12 01:02:43;;;;;;;4.05;1.38;;;20.70;53.10;;;;;;5089650;28;20395;-77
2021/04/12 01:05:16;;;;;;;3.20;1.40;;;20.90;52.30;;;;;;5087990;28;20402;-77
2021/04/12 01:07:52;;;;;;;3.00;1.15;;;20.20;54.40;;;;;;5089280;28;20396;-77
2021/04/12 01:10:28;;;;;;;3.73;1.37;;;19.20;54.50;;;;;;5089495;28;20460;-78
2021/04/12 01:13:27;;;;;;;8.10;1.40;;;18.50;57.30;;;;;;5088822;28;20412;-77
2021/04/12 01:16:18;;;;;;;3.47;1.13;;;17.90;59.90;;;;;;5063425;28;20862;-78
2021/04/12 01:18:48;;;;;;;4.53;1.10;;;17.60;58.80;;;;;;5088384;28;20392;-78
2021/04/12 01:21:36;;;;;;;3.72;1.23;;;17.50;60.60;;;;;;5088979;28;20509;-77
2021/04/12 01:24:26;;;;;;;6.55;1.10;;;17.10;59.70;;;;;;5088692;28;20399;-78
2021/04/12 01:27:29;;;;;;;7.10;1.38;;;16.70;59.60;;;;;;5057950;28;20955;-79
2021/04/12 01:30:33;;;;;;;11.85;1.50;;;16.50;61.50;;;;;;5045933;28;20894;-77
2021/04/12 01:33:03;;;;;;;5.35;1.10;;;16.50;63.20;;;;;;5085917;28;20411;-78
2021/04/12 01:35:56;;;;;;;3.65;1.00;;;16.60;63.40;;;;;;5086258;28;22150;-78
2021/04/12 01:38:44;;;;;;;8.32;1.42;;;16.60;60.60;;;;;;5057272;28;21409;-77
2021/04/12 01:41:30;;;;;;;8.73;1.48;;;16.70;63.60;;;;;;5088601;28;20777;-77
2021/04/12 01:44:06;;;;;;;3.25;0.98;;;16.80;63.20;;;;;;5088606;28;20940;-79
2021/04/12 01:47:00;;;;;;;4.65;1.40;;;16.90;62.60;;;;;;5087553;28;20390;-77
2021/04/12 01:49:41;;;;;;;3.85;1.27;;;16.90;64.50;;;;;;5088286;28;20395;-78
2021/04/12 01:52:26;;;;;;;3.87;1.07;;;16.80;61.40;;;;;;5089465;28;20393;-78
2021/04/12 01:55:02;;;;;;;4.60;1.27;;;16.70;62.20;;;;;;5087089;28;20881;-79
2021/04/12 01:57:55;;;;;;;5.60;1.02;;;16.60;62.20;;;;;;5087131;28;20395;-79
2021/04/12 02:00:43;;;;;;;4.20;1.23;;;16.60;63.10;;;;;;5080079;28;20886;-79
2021/04/12 02:03:28;;;;;;;6.05;0.98;;;16.60;60.50;;;;;;5087874;28;20903;-80
2021/04/12 02:06:01;;;;;;;4.20;1.48;;;16.50;64.40;;;;;;5088981;28;20437;-80
2021/04/12 02:08:59;;;;;;;4.15;1.25;;;16.60;62.70;;;;;;5088082;28;20794;-80
2021/04/12 02:11:32;;;;;;;5.10;1.20;;;16.60;64.50;;;;;;5102988;28;20390;-79
2021/04/12 02:14:23;;;;;;;6.13;1.23;;;16.80;60.90;;;;;;5088693;28;20494;-80
2021/04/12 02:17:10;;;;;;;6.22;1.20;;;16.60;62.80;;;;;;5088352;28;20367;-79
2021/04/12 02:20:14;;;;;;;4.97;1.27;;;16.70;62.80;;;;;;5086953;28;20395;-80
2021/04/12 02:23:14;;;;;;;3.53;1.00;;;16.80;64.40;;;;;;5087694;28;20418;-79
2021/04/12 02:26:06;;;;;;;3.50;1.10;;;16.90;62.00;;;;;;5086927;28;20548;-79
2021/04/12 02:28:59;;;;;;;4.15;1.20;;;17.00;64.10;;;;;;5079223;28;20467;-79
2021/04/12 02:31:38;;;;;;;4.40;0.90;;;17.10;63.80;;;;;;5091903;28;20369;-79
2021/04/12 02:34:43;;;;;;;2.50;0.95;;;16.90;59.80;;;;;;5091909;28;20414;-79
2021/04/12 02:37:36;;;;;;;5.57;1.30;;;17.00;61.60;;;;;;5094158;28;20744;-79
2021/04/12 02:40:12;;;;;;;4.25;1.00;;;17.10;60.20;;;;;;5089120;28;20395;-79
2021/04/12 02:43:04;;;;;;;3.70;1.00;;;17.10;62.60;;;;;;5091807;28;21060;-79
2021/04/12 02:45:47;;;;;;;6.82;1.33;;;16.90;62.00;;;;;;5091081;28;20380;-79
2021/04/12 02:48:26;;;;;;;4.30;0.98;;;17.00;63.80;;;;;;5091751;28;20724;-79
2021/04/12 02:50:59;;;;;;;4.40;1.17;;;17.10;62.60;;;;;;5088399;28;20396;-80
2021/04/12 02:53:51;;;;;;;3.10;1.10;;;17.20;62.60;;;;;;5091030;28;20476;-79
2021/04/12 02:56:30;;;;;;;4.00;1.08;;;17.20;60.90;;;;;;5089425;28;20814;-79
2021/04/12 02:59:02;;;;;;;4.10;0.90;;;17.20;59.80;;;;;;5091147;28;20738;-79
2021/04/12 03:01:53;;;;;;;4.67;1.27;;;17.10;60.30;;;;;;5091354;28;20873;-79
2021/04/12 03:05:11;;;;;;;5.60;1.30;;;17.20;60.70;;;;;;5091451;28;20380;-79
2021/04/12 03:07:52;;;;;;;3.65;1.05;;;17.20;59.40;;;;;;5048889;28;20375;-79
2021/04/12 03:10:31;;;;;;;5.57;1.27;;;17.30;59.00;;;;;;5048611;28;20376;-78
2021/04/12 03:13:20;;;;;;;4.60;1.20;;;17.30;62.70;;;;;;5079279;28;20450;-79
2021/04/12 03:15:53;;;;;;;5.35;1.10;;;17.30;61.60;;;;;;5059137;28;20751;-79
2021/04/12 03:18:44;;;;;;;4.10;1.15;;;17.50;62.70;;;;;;5071111;28;20393;-79
2021/04/12 03:21:32;;;;;;;3.67;1.00;;;17.60;61.40;;;;;;5069766;28;20790;-79
2021/04/12 03:24:50;;;;;;;7.30;1.43;;;17.70;57.50;;;;;;5071236;28;20411;-79
2021/04/12 03:27:35;;;;;;;4.15;0.90;;;17.70;60.40;;;;;;5036554;28;20370;-78
2021/04/12 03:30:08;;;;;;;7.50;1.33;;;17.70;60.70;;;;;;5069828;28;20813;-79
2021/04/12 03:33:19;;;;;;;5.20;1.03;;;17.70;61.20;;;;;;5069362;28;20405;-79
2021/04/12 03:35:51;;;;;;;4.60;1.25;;;17.70;57.60;;;;;;5068942;28;20409;-79
2021/04/12 03:39:08;;;;;;;3.53;1.33;;;17.70;59.40;;;;;;5070987;28;20429;-79
2021/04/12 03:42:10;;;;;;;5.33;1.33;;;17.80;61.10;;;;;;5039177;28;20422;-79
2021/04/12 03:44:49;;;;;;;7.82;1.17;;;17.80;60.00;;;;;;5091017;28;20369;-78
2021/04/12 03:47:31;;;;;;;5.57;1.20;;;17.80;59.30;;;;;;5089052;28;20463;-78
2021/04/12 03:49:58;;;;;;;5.22;1.27;;;17.80;59.80;;;;;;5092332;28;20439;-79
2021/04/12 03:52:47;;;;;;;5.18;1.25;;;17.80;59.20;;;;;;5090059;28;20814;-79
2021/04/12 03:55:27;;;;;;;3.90;1.00;;;17.80;62.70;;;;;;5082587;28;20885;-78
2021/04/12 03:58:36;;;;;;;3.57;1.00;;;17.90;58.00;;;;;;5090373;28;20381;-78
2021/04/12 04:01:29;;;;;;;3.63;1.20;;;17.90;61.30;;;;;;5041058;28;20409;-78
2021/04/12 04:04:06;;;;;;;4.93;1.15;;;18.00;61.30;;;;;;5087286;28;20379;-78
2021/04/12 04:07:11;;;;;;;4.47;1.25;;;18.00;60.60;;;;;;5090486;28;20373;-78
2021/04/12 04:09:47;;;;;;;4.13;1.08;;;18.10;56.30;;;;;;5059898;28;21105;-77
2021/04/12 04:12:35;;;;;;;2.83;0.90;;;18.00;56.00;;;;;;5080828;28;20396;-78
2021/04/12 04:15:26;;;;;;;4.88;1.10;;;18.00;57.60;;;;;;5077348;28;20424;-78
2021/04/12 04:18:13;;;;;;;4.68;1.00;;;17.90;55.40;;;;;;5083075;28;20400;-78
2021/04/12 04:20:58;;;;;;;4.70;1.30;;;17.80;58.70;;;;;;5085558;28;20743;-78
2021/04/12 04:23:44;;;;;;;3.83;1.00;;;17.80;59.50;;;;;;5088364;28;20380;-79
2021/04/12 04:26:16;;;;;;;4.25;1.15;;;17.80;57.50;;;;;;5089927;28;20416;-79
2021/04/12 04:29:01;;;;;;;4.28;0.90;;;17.80;58.90;;;;;;5074773;28;20382;-79
2021/04/12 04:32:03;;;;;;;4.78;0.95;;;17.70;55.70;;;;;;5070490;28;20395;-80
2021/04/12 04:34:55;;;;;;;4.68;0.93;;;17.60;57.00;;;;;;5080084;28;20968;-79
2021/04/12 04:38:00;;;;;;;3.38;0.90;;;17.50;55.70;;;;;;5076823;28;20424;-79
2021/04/12 04:40:52;;;;;;;6.53;1.20;;;17.50;58.20;;;;;;5079188;28;20395;-79
2021/04/12 04:43:22;;;;;;;3.83;1.05;;;17.60;58.20;;;;;;5076037;28;20378;-79
2021/04/12 04:46:23;;;;;;;5.95;1.00;;;17.60;58.90;;;;;;5086085;28;20509;-79
2021/04/12 04:48:52;;;;;;;2.47;1.00;;;17.60;57.30;;;;;;5074206;28;20409;-79
2021/04/12 04:51:52;;;;;;;4.63;1.00;;;17.60;56.40;;;;;;5085049;28;21023;-79
2021/04/12 04:54:28;;;;;;;4.63;1.05;;;17.60;60.00;;;;;;5088056;28;20396;-78
2021/04/12 04:57:32;;;;;;;4.20;0.90;;;17.60;59.60;;;;;;5080052;28;20620;-79
2021/04/12 05:00:18;;;;;;;8.52;1.20;;;17.60;61.10;;;;;;5089528;28;20377;-77
2021/04/12 05:03:13;;;;;;;3.97;1.30;;;17.70;60.70;;;;;;5089353;28;20420;-77
2021/04/12 05:06:06;;;;;;;2.83;0.85;;;17.70;59.80;;;;;;5088597;28;20380;-77
2021/04/12 05:08:45;;;;;;;4.17;1.23;;;17.60;58.80;;;;;;5089105;28;20851;-77
2021/04/12 05:11:45;;;;;;;3.75;0.82;;;17.60;56.70;;;;;;5088457;28;20388;-78
2021/04/12 05:14:35;;;;;;;6.03;1.37;;;17.60;59.10;;;;;;5088063;28;20963;-79
2021/04/12 05:17:38;;;;;;;5.65;1.33;;;17.40;60.90;;;;;;5069054;28;20378;-78
2021/04/12 05:20:14;;;;;;;4.88;1.30;;;17.40;62.00;;;;;;5083496;28;20867;-78
2021/04/12 05:23:00;;;;;;;4.70;1.30;;;17.30;61.60;;;;;;5078876;28;20466;-78
2021/04/12 05:25:57;;;;;;;6.88;1.38;;;17.30;62.30;;;;;;5088856;28;20372;-77
2021/04/12 05:28:47;;;;;;;9.30;1.70;;;17.20;61.20;;;;;;5088860;28;20388;-78
2021/04/12 05:31:53;;;;;;;5.18;1.27;;;17.10;61.40;;;;;;5086562;28;20395;-78
2021/04/12 05:34:26;;;;;;;5.10;1.35;;;17.00;62.10;;;;;;5103312;28;20409;-78
2021/04/12 05:37:37;;;;;;;8.10;1.43;;;17.00;61.40;;;;;;5091479;28;20429;-79
2021/04/12 05:40:08;;;;;;;7.55;1.42;;;17.00;62.90;;;;;;5082706;28;20403;-78
2021/04/12 05:43:12;;;;;;;5.43;1.48;;;17.00;61.60;;;;;;5087521;28;20843;-78
2021/04/12 05:45:39;;;;;;;4.70;1.23;;;17.10;61.60;;;;;;5088795;28;20828;-79
2021/04/12 05:48:43;;;;;;;4.38;1.20;;;17.10;60.60;;;;;;5088378;28;20416;-78
2021/04/12 05:51:13;;;;;;;4.57;1.30;;;17.10;62.60;;;;;;5087242;28;20902;-79
2021/04/12 05:54:10;;;;;;;3.47;1.20;;;17.00;64.20;;;;;;5090394;28;20400;-79
2021/04/12 05:57:00;;;;;;;6.93;1.48;;;16.80;63.80;;;;;;5084983;28;20589;-79
2021/04/12 05:59:45;;;;;;;5.60;1.40;;;16.70;64.40;;;;;;5081103;28;20377;-79
2021/04/12 06:02:22;;;;;;;4.83;1.33;;;16.60;65.90;;;;;;5086669;28;20381;-79
2021/04/12 06:04:51;;;;;;;8.50;1.45;;;16.60;65.20;;;;;;5085345;28;20388;-80
2021/04/12 06:07:55;;;;;;;3.33;1.10;;;16.60;65.70;;;;;;5090056;28;20384;-79
2021/04/12 06:10:55;;;;;;;7.85;1.60;;;16.50;66.20;;;;;;5081183;28;20790;-80
2021/04/12 06:13:31;;;;;;;4.63;1.15;;;16.40;67.00;;;;;;5090887;28;20494;-80
2021/04/12 06:16:29;;;;;;;4.32;1.30;;;16.40;67.00;;;;;;5092571;28;20387;-80
2021/04/12 06:19:28;;;;;;;5.47;1.47;;;16.40;66.80;;;;;;5080615;28;20411;-79
2021/04/12 06:22:28;;;;;;;6.37;1.83;;;16.40;66.30;;;;;;5072168;28;20377;-78
2021/04/12 06:25:36;;;;;;;4.83;1.20;;;16.40;65.60;;;;;;5071993;28;20466;-78
2021/04/12 06:28:41;;;;;;;4.50;1.42;;;16.40;65.70;;;;;;5070780;28;20947;-77
2021/04/12 06:31:23;;;;;;;3.28;1.33;;;16.30;67.10;;;;;;5090325;28;20376;-78
2021/04/12 06:34:08;;;;;;;5.65;1.58;;;16.30;67.10;;;;;;5084306;28;20891;-78
2021/04/12 06:37:07;;;;;;;5.22;1.85;;;16.20;67.40;;;;;;5076534;28;20414;-79
2021/04/12 06:39:33;;;;;;;4.35;1.30;;;16.10;69.20;;;;;;5088088;28;20396;-79
2021/04/12 06:42:49;;;;;;;5.30;1.48;;;16.00;68.40;;;;;;5091371;28;20438;-80
2021/04/12 06:45:49;;;;;;;5.50;1.33;;;15.80;69.60;;;;;;5089089;28;20361;-79
2021/04/12 06:48:44;;;;;;;5.10;1.30;;;15.70;70.50;;;;;;5090779;28;20826;-78
2021/04/12 06:51:50;;;;;;;5.43;1.73;;;15.70;71.50;;;;;;5092274;28;20380;-79
2021/04/12 06:54:34;;;;;;;7.93;2.50;;;15.70;70.00;;;;;;5072889;28;20415;-79
2021/04/12 06:57:38;;;;;;;5.53;1.52;;;15.60;71.50;;;;;;5091371;28;20386;-79
2021/04/12 07:00:57;;;;;;;4.40;1.42;;;15.50;72.40;;;;;;5082771;28;20384;-78
2021/04/12 07:04:03;;;;;;;7.57;1.30;;;15.50;72.60;;;;;;5094922;28;20387;-78
2021/04/12 07:07:00;;;;;;;3.25;1.17;;;15.40;73.50;;;;;;5091193;28;20378;-79
2021/04/12 07:09:33;;;;;;;6.82;1.45;;;15.30;73.90;;;;;;5090619;28;20392;-79
2021/04/12 07:12:15;;;;;;;4.55;1.38;;;15.10;75.80;;;;;;5091270;28;20365;-79
2021/04/12 07:15:15;;;;;;;3.70;1.20;;;15.10;75.70;;;;;;5090114;28;20395;-79
2021/04/12 07:18:00;;;;;;;8.30;1.52;;;15.00;77.10;;;;;;5101487;28;20382;-78
2021/04/12 07:20:27;;;;;;;6.45;1.48;;;14.80;77.80;;;;;;5108908;28;20374;-78
2021/04/12 07:23:15;;;;;;;5.68;1.55;;;14.70;81.00;;;;;;5090957;28;20739;-78
2021/04/12 07:25:51;;;;;;;4.15;1.30;;;14.60;85.80;;;;;;5091157;28;20388;-78
2021/04/12 07:28:39;;;;;;;7.65;1.40;;;14.50;89.70;;;;;;5091093;28;20377;-78
2021/04/12 07:31:41;;;;;;;7.90;1.60;;;14.40;91.20;;;;;;5074962;28;20723;-80
2021/04/12 07:34:48;;;;;;;6.65;1.50;;;14.20;90.90;;;;;;5084339;28;20419;-79
2021/04/12 07:37:24;;;;;;;5.70;1.45;;;14.10;91.20;;;;;;5084920;28;20440;-79
2021/04/12 07:40:34;;;;;;;5.95;1.50;;;14.10;90.60;;;;;;5088712;28;20428;-79
2021/04/12 07:43:13;;;;;;;4.32;1.38;;;14.00;91.10;;;;;;5085160;28;20763;-79
2021/04/12 07:46:19;;;;;;;6.25;1.52;;;14.00;91.50;;;;;;5088165;28;20777;-79
2021/04/12 07:48:46;;;;;;;6.90;1.75;;;14.00;91.70;;;;;;5082963;28;20403;-79
2021/04/12 07:51:51;;;;;;;5.97;1.45;;;13.90;91.60;;;;;;5089709;28;20372;-79
2021/04/12 07:54:48;;;;;;;3.67;1.63;;;13.80;91.60;;;;;;5089703;28;20856;-79
2021/04/12 07:57:48;;;;;;;9.07;2.10;;;13.80;91.60;;;;;;5083309;28;20421;-78
2021/04/12 08:00:49;;;;;;;6.95;2.08;;;13.80;93.50;;;;;;5073100;28;20407;-78
2021/04/12 08:03:53;;;;;;;11.55;1.83;;;13.60;95.40;;;;;;5088955;28;20445;-79
2021/04/12 08:07:10;;;;;;;7.43;2.10;;;13.60;96.50;;;;;;5076398;28;20919;-79
2021/04/12 08:09:55;;;;;;;9.63;2.58;;;13.50;97.10;;;;;;5090107;28;20395;-79
2021/04/12 08:13:03;;;;;;;7.82;2.10;;;13.40;97.30;;;;;;5088568;28;20395;-78
2021/04/12 08:15:57;;;;;;;10.38;2.42;;;13.40;97.70;;;;;;5074658;28;20400;-78
2021/04/12 08:18:33;;;;;;;8.50;2.45;;;13.40;97.90;;;;;;5077475;28;20831;-79
2021/04/12 08:21:12;;;;;;;8.02;2.55;;;13.30;97.30;;;;;;5083990;28;20395;-79
2021/04/12 08:24:00;;;;;;;9.45;2.80;;;13.20;98.80;;;;;;5081884;28;20380;-79
2021/04/12 08:26:48;;;;;;;9.52;2.35;;;13.20;99.20;;;;;;5081980;28;21146;-79
2021/04/12 08:29:52;;;;;;;10.20;2.60;;;13.10;99.90;;;;;;5086051;28;20395;-79
2021/04/12 08:32:56;;;;;;;8.75;2.45;;;13.10;98.40;;;;;;5080793;28;20908;-79
2021/04/12 08:36:00;;;;;;;6.85;2.15;;;13.20;99.10;;;;;;5084107;28;20407;-80
2021/04/12 08:38:55;;;;;;;10.43;2.78;;;13.10;99.40;;;;;;5088573;28;20423;-78
2021/04/12 08:41:52;;;;;;;9.13;2.47;;;13.10;99.80;;;;;;5087896;28;20736;-78
2021/04/12 08:44:57;;;;;;;5.68;2.05;;;13.00;99.90;;;;;;5070345;28;20934;-79
2021/04/12 08:47:39;;;;;;;8.98;2.13;;;12.90;99.90;;;;;;5006614;28;20535;-79
2021/04/12 08:50:43;;;;;;;9.10;2.35;;;12.70;99.90;;;;;;5005831;28;20898;-79
2021/04/12 08:53:41;;;;;;;10.13;2.15;;;12.70;99.90;;;;;;5059597;28;20439;-78
2021/04/12 08:56:35;;;;;;;10.18;2.70;;;12.60;99.90;;;;;;5070627;28;20416;-79
2021/04/12 08:59:17;;;;;;;8.43;2.38;;;12.60;99.90;;;;;;5069332;28;20458;-78
2021/04/12 09:02:11;;;;;;;10.80;2.30;;;12.50;99.90;;;;;;5076352;28;20398;-80
2021/04/12 09:05:22;;;;;;;7.65;2.15;;;12.40;99.90;;;;;;5085666;28;21139;-79
2021/04/12 09:08:18;;;;;;;6.28;2.20;;;12.30;99.90;;;;;;5040096;28;20405;-80
2021/04/12 09:11:03;;;;;;;10.45;2.95;;;12.30;99.90;;;;;;4993784;28;20400;-79
2021/04/12 09:14:02;;;;;;;9.13;2.70;;;12.30;99.90;;;;;;5063780;28;20449;-80
2021/04/12 09:17:04;;;;;;;9.57;2.78;;;12.30;99.90;;;;;;5085087;28;20399;-79
2021/04/12 09:19:43;;;;;;;11.18;2.60;;;12.30;99.90;;;;;;5087100;28;20392;-80
2021/04/12 09:22:39;;;;;;;14.83;3.20;;;12.30;99.90;;;;;;5084061;28;20856;-79
2021/04/12 09:25:24;;;;;;;12.05;2.75;;;12.40;99.90;;;;;;5066192;28;21212;-80
2021/04/12 09:28:09;;;;;;;12.38;3.10;;;12.40;99.90;;;;;;5084815;28;20738;-80
2021/04/12 09:31:14;;;;;;;14.53;3.27;;;12.40;99.90;;;;;;5083180;28;20421;-79
2021/04/12 09:34:26;;;;;;;14.40;3.20;;;12.40;99.90;;;;;;5080132;28;20868;-79
2021/04/12 09:37:29;;;;;;;9.13;2.80;;;12.30;99.90;;;;;;5073361;28;20392;-79
2021/04/12 09:39:59;;;;;;;7.45;2.60;;;12.10;99.90;;;;;;5084752;28;20395;-79
2021/04/12 09:42:35;;;;;;;11.80;3.37;;;12.00;99.90;;;;;;5083548;28;20919;-79
2021/04/12 09:45:17;;;;;;;12.10;2.80;;;12.00;99.90;;;;;;5084734;28;21891;-79
2021/04/12 09:47:52;;;;;;;8.57;2.90;;;11.90;99.90;;;;;;5082380;28;20399;-79
2021/04/12 09:50:50;;;;;;;12.07;2.67;;;11.90;99.90;;;;;;5082341;28;20497;-79
2021/04/12 09:53:45;;;;;;;13.27;3.00;;;11.90;99.90;;;;;;5086483;28;20458;-79
2021/04/12 09:56:39;;;;;;;13.45;2.80;;;11.90;99.90;;;;;;5080429;28;20393;-79
2021/04/12 09:59:29;;;;;;;7.00;2.75;;;11.90;99.90;;;;;;5076365;28;20435;-78
2021/04/12 10:02:23;;;;;;;10.50;2.90;;;11.90;99.90;;;;;;5078815;28;20465;-79
2021/04/12 10:04:50;;;;;;;9.13;3.08;;;11.80;99.90;;;;;;5082447;28;20376;-79
2021/04/12 10:07:32;;;;;;;7.43;2.90;;;11.80;99.90;;;;;;5085732;28;20463;-79
2021/04/12 10:10:07;;;;;;;13.15;2.92;;;11.80;99.90;;;;;;5084554;28;20449;-79
2021/04/12 10:13:29;;;;;;;7.70;2.58;;;11.80;99.90;;;;;;5083769;28;20434;-79
2021/04/12 10:16:35;;;;;;;8.23;2.50;;;11.70;99.90;;;;;;5062455;28;20486;-79
2021/04/12 10:22:14;;;;;;;9.75;2.92;;;11.60;99.90;;;;;;5070895;28;20485;-78
2021/04/12 10:25:07;;;;;;;9.50;2.50;;;11.60;99.90;;;;;;5065660;28;20383;-78
2021/04/12 10:27:53;;;;;;;7.68;2.65;;;11.60;99.90;;;;;;5081318;28;20420;-79
2021/04/12 10:30:25;;;;;;;6.65;2.22;;;11.60;99.90;;;;;;5074169;28;20396;-79
2021/04/12 10:33:00;;;;;;;7.07;2.25;;;11.50;99.90;;;;;;5080816;28;20462;-79
2021/04/12 10:35:38;;;;;;;5.53;1.90;;;11.50;99.90;;;;;;5084792;28;20407;-81
2021/04/12 10:38:24;;;;;;;9.40;2.40;;;11.50;99.90;;;;;;5085995;28;20783;-79
2021/04/12 10:41:12;;;;;;;8.23;2.20;;;11.50;99.90;;;;;;5080585;28;20445;-79
2021/04/12 10:43:50;;;;;;;10.65;2.30;;;11.60;99.90;;;;;;5085880;28;20373;-79
2021/04/12 10:46:17;;;;;;;8.38;2.08;;;11.50;99.90;;;;;;5085690;28;20373;-79
2021/04/12 10:49:22;;;;;;;8.70;2.35;;;11.50;99.90;;;;;;5083066;28;20730;-79
2021/04/12 10:52:14;;;;;;;10.63;2.13;;;11.50;99.90;;;;;;5104049;28;20396;-79
2021/04/12 10:55:16;;;;;;;8.27;1.90;;;11.50;99.90;;;;;;5088700;28;20422;-78
2021/04/12 10:58:17;;;;;;;9.52;2.38;;;11.50;99.90;;;;;;5086181;28;20800;-78
2021/04/12 11:00:50;;;;;;;9.73;1.98;;;11.50;99.90;;;;;;5077939;28;20403;-79
2021/04/12 11:03:17;;;;;;;7.43;2.20;;;11.40;99.90;;;;;;5086586;28;20399;-78
2021/04/12 11:05:56;;;;;;;11.05;2.25;;;11.40;99.90;;;;;;5089083;28;21087;-79
2021/04/12 11:08:38;;;;;;;7.72;2.33;;;11.40;99.90;;;;;;5088321;28;20514;-79
2021/04/12 11:11:58;;;;;;;9.80;2.15;;;11.40;99.90;;;;;;5079098;28;20450;-78
2021/04/12 11:14:37;;;;;;;7.38;2.20;;;11.20;99.90;;;;;;5032723;28;20492;-78
2021/04/12 11:17:15;;;;;;;8.23;2.60;;;11.20;99.90;;;;;;5068733;28;20400;-79
2021/04/12 11:19:54;;;;;;;9.32;2.80;;;11.20;99.90;;;;;;5072291;28;20380;-78
2021/04/12 11:22:40;;;;;;;12.00;2.65;;;11.10;99.90;;;;;;5088200;28;20396;-80
2021/04/12 11:25:27;;;;;;;9.48;3.50;;;11.10;99.90;;;;;;5069498;28;20768;-79
2021/04/12 11:28:39;;;;;;;8.23;2.72;;;11.00;99.90;;;;;;5078916;28;20386;-79
2021/04/12 11:31:13;;;;;;;7.93;2.70;;;10.90;99.90;;;;;;5071361;28;20461;-78
2021/04/12 11:33:50;;;;;;;8.93;2.88;;;10.90;99.90;;;;;;5069406;28;20460;-78
2021/04/12 11:36:28;;;;;;;7.75;3.22;;;10.80;99.90;;;;;;5076166;28;20404;-79
2021/04/12 11:39:15;;;;;;;8.40;2.80;;;10.80;99.90;;;;;;5087322;28;20383;-78
2021/04/12 11:41:54;;;;;;;8.45;2.92;;;10.80;99.90;;;;;;5087307;28;20427;-78
2021/04/12 11:44:54;;;;;;;10.90;3.25;;;10.60;99.90;;;;;;5079549;28;20400;-79
2021/04/12 11:47:48;;;;;;;10.00;3.90;;;10.60;99.90;;;;;;5075764;28;20391;-78
2021/04/12 11:50:22;;;;;;;8.45;3.60;;;10.50;99.90;;;;;;5079033;28;20393;-79
2021/04/12 11:53:07;;;;;;;10.80;3.67;;;10.50;99.90;;;;;;5084597;28;20396;-78
2021/04/12 11:55:43;;;;;;;8.23;3.70;;;10.50;99.90;;;;;;5082345;28;20397;-79
2021/04/12 11:58:18;;;;;;;12.10;4.07;;;10.40;99.90;;;;;;5071452;28;20389;-79
2021/04/12 12:00:56;;;;;;;12.00;3.83;;;10.40;99.90;;;;;;5080537;28;20400;-78
2021/04/12 12:03:39;;;;;;;12.55;3.72;;;10.40;99.90;;;;;;5075507;28;20426;-79
2021/04/12 12:06:31;;;;;;;6.32;3.05;;;10.50;99.90;;;;;;5082137;28;20397;-79
2021/04/12 12:09:09;;;;;;;11.40;3.63;;;10.40;99.90;;;;;;5088940;28;20387;-79
2021/04/12 12:12:01;;;;;;;10.95;3.70;;;10.40;99.90;;;;;;5085023;28;20401;-80
2021/04/12 12:14:41;;;;;;;10.23;3.45;;;10.40;99.90;;;;;;5070437;28;20476;-79
2021/04/12 12:17:26;;;;;;;8.98;2.95;;;10.40;99.90;;;;;;5073152;28;20393;-79
2021/04/12 12:20:07;;;;;;;11.52;3.20;;;10.40;99.90;;;;;;5071511;28;20467;-79
2021/04/12 12:23:24;;;;;;;10.47;3.30;;;10.50;99.90;;;;;;5081570;28;20392;-79
2021/04/12 12:25:53;;;;;;;9.18;3.15;;;10.50;99.90;;;;;;5053528;28;20384;-79
2021/04/12 12:28:59;;;;;;;10.55;3.30;;;10.50;99.90;;;;;;5081215;28;20407;-79
2021/04/12 12:31:34;;;;;;;12.53;3.10;;;10.40;99.90;;;;;;5070400;28;20408;-80
2021/04/12 12:34:34;;;;;;;10.52;3.33;;;10.40;99.90;;;;;;5087602;28;20890;-79
2021/04/12 12:37:10;;;;;;;10.80;3.53;;;10.40;99.90;;;;;;5071553;28;20384;-79
2021/04/12 12:40:06;;;;;;;11.00;3.50;;;10.40;99.90;;;;;;5079860;28;20392;-79
2021/04/12 12:42:38;;;;;;;11.23;3.38;;;10.40;99.90;;;;;;5076234;28;20390;-79
2021/04/12 12:45:14;;;;;;;11.90;3.45;;;10.20;99.90;;;;;;5079029;28;20480;-79
2021/04/12 12:47:48;;;;;;;9.50;3.75;;;10.20;99.90;;;;;;5082224;28;20396;-79
2021/04/12 12:50:21;;;;;;;12.82;4.28;;;10.10;99.90;;;;;;5084307;28;20402;-78
2021/04/12 12:52:54;;;;;;;9.43;3.40;;;10.10;99.90;;;;;;5079878;28;20400;-79
2021/04/12 12:55:23;;;;;;;9.70;3.33;;;10.00;99.90;;;;;;5082385;28;20729;-79
2021/04/12 12:57:52;;;;;;;9.77;3.63;;;10.00;99.90;;;;;;5080998;28;20392;-79
2021/04/12 13:00:22;;;;;;;9.57;4.00;;;10.00;99.90;;;;;;5072110;28;20394;-79
2021/04/12 13:02:50;;;;;;;10.82;3.88;;;10.00;99.90;;;;;;5077792;28;20412;-77
2021/04/12 13:05:24;;;;;;;11.75;3.92;;;9.90;99.90;;;;;;5078895;28;20428;-79
2021/04/12 13:08:12;;;;;;;9.30;3.63;;;9.80;99.90;;;;;;5082235;28;20399;-80
2021/04/12 13:10:50;;;;;;;12.07;3.75;;;9.70;99.90;;;;;;5077343;28;20394;-79
2021/04/12 13:13:34;;;;;;;9.90;3.70;;;9.70;99.90;;;;;;5082700;28;20400;-78
2021/04/12 13:16:28;;;;;;;8.48;3.30;;;9.70;99.90;;;;;;5079727;28;20466;-79
2021/04/12 13:18:59;;;;;;;9.55;3.67;;;9.60;99.90;;;;;;5071223;28;20406;-78
2021/04/12 13:21:43;;;;;;;12.65;3.85;;;9.50;99.90;;;;;;5077331;28;20391;-79
2021/04/12 13:24:29;;;;;;;8.63;3.30;;;9.50;99.90;;;;;;5079605;28;20382;-79
2021/04/12 13:27:03;;;;;;;7.82;3.17;;;9.50;99.90;;;;;;5084206;28;20438;-79
2021/04/12 13:29:47;;;;;;;9.95;3.47;;;9.60;99.90;;;;;;5069091;28;20459;-79
2021/04/12 13:32:23;;;;;;;12.70;3.33;;;9.70;99.90;;;;;;5067757;28;20382;-78
2021/04/12 13:34:57;;;;;;;9.50;3.28;;;9.60;99.90;;;;;;5072416;28;20459;-79
2021/04/12 13:37:28;;;;;;;11.20;3.30;;;9.60;99.90;;;;;;5078649;28;20388;-79
2021/04/12 13:40:09;;;;;;;10.13;3.28;;;9.60;99.90;;;;;;5072825;28;20397;-79
2021/04/12 13:42:50;;;;;;;9.57;3.25;;;9.60;99.90;;;;;;5105846;27;20405;-79
2021/04/12 13:45:29;;;;;;;10.05;3.63;;;9.60;99.90;;;;;;5081691;28;20395;-79
2021/04/12 13:48:00;;;;;;;10.77;3.70;;;9.60;99.90;;;;;;5072245;28;20407;-80
2021/04/12 13:50:39;;;;;;;10.53;3.30;;;9.60;99.90;;;;;;5086510;28;20402;-79
2021/04/12 13:53:27;;;;;;;11.23;3.90;;;9.60;99.90;;;;;;5086146;28;20902;-79
2021/04/12 13:56:08;;;;;;;10.40;3.33;;;9.50;99.90;;;;;;5074990;28;20514;-79
2021/04/12 13:58:41;;;;;;;13.43;4.93;;;9.50;99.90;;;;;;5077725;28;20453;-79
2021/04/12 14:01:24;;;;;;;11.02;3.85;;;9.50;99.90;;;;;;5079944;28;20377;-78
2021/04/12 14:04:05;;;;;;;13.43;3.78;;;9.40;99.90;;;;;;5077454;28;20780;-79
2021/04/12 14:06:37;;;;;;;9.63;3.90;;;9.40;99.90;;;;;;5072490;28;20489;-79
2021/04/12 14:09:11;;;;;;;9.27;4.13;;;9.40;99.90;;;;;;5078485;28;20399;-79
2021/04/12 14:12:04;;;;;;;7.82;3.88;;;9.30;99.90;;;;;;5078193;28;20385;-79
2021/04/12 14:14:56;;;;;;;11.30;3.95;;;9.30;99.90;;;;;;5083293;28;20468;-79
2021/04/12 14:17:43;;;;;;;9.80;4.20;;;9.20;99.90;;;;;;5068760;28;20388;-79
2021/04/12 14:20:16;;;;;;;12.07;3.88;;;9.20;99.90;;;;;;5069236;28;20398;-79
2021/04/12 14:22:52;;;;;;;11.32;4.28;;;9.20;99.90;;;;;;5094816;28;20392;-79
2021/04/12 14:25:27;;;;;;;13.07;4.10;;;9.30;99.90;;;;;;5080709;28;20395;-79
2021/04/12 14:28:08;;;;;;;11.30;4.30;;;9.30;99.90;;;;;;5082521;28;20383;-79
2021/04/12 14:30:43;;;;;;;10.38;3.85;;;9.30;99.90;;;;;;5074319;28;20400;-79
2021/04/12 14:33:15;;;;;;;9.38;4.30;;;9.30;99.90;;;;;;5075387;28;20408;-79